Terminal Aerodrome Forecast
Issued by NWS Pittsburgh, PA

Current Version | Previous Version | Text Only | Print | Product List | Glossary Off
Versions: 1 2 3 4 5 6 7 8 9 10 11 12 13 14 15 16 17 18 19 20 21 22 23 24 25 26 27 28 29 30 31

880
FTUS41 KPBZ 251134
TAFPIT
TAF
KPIT 251134Z 2512/2618 10007KT P6SM -RA SCT007 OVC015
      TEMPO 2512/2514 BKN007
     FM251500 20007KT P6SM VCSH OVC025
     FM251700 21008KT P6SM VCSH OVC040
     FM252300 24005KT P6SM -SHRA OVC025
     FM260300 24005KT 3SM -SHRA OVC005
     FM261600 27009KT P6SM BKN015=

USA.gov is the U.S. government's official web portal to all federal, state and local government web resources and services.